Picos, Brazil
Current Conditions -  °F | °C
As of 1:00 PM on Wednesday 26 Nov 2014 (Local Time) from SBJU Reporting Station
Broken Clouds Broken Clouds  
Wind Chill: 91°   Ceiling: 2000
Heat Index: 95°   Visibility: 6mi
Dew Point: 68°   Wind: 3mph
Humidity: 46%   Direction: 70°ENE
Pressure: 29.94"   Gusts: NA
Location:  7.08°S, 41.47°W
Report Text: SBJU 261600Z 07003KT BKN020 33/20 Q1014
Loading
Personal Weather Stations






























Interactive Weather Map New forecast layout! Learn more

10-Day Weather Forecast

Advertisements
Track Severe Weather on mobile